createdAt,value
2022-08-05T00:01:35.466Z,100.00
2022-08-05T00:04:08.389Z,100.00
2022-08-05T00:06:37.203Z,100.00
2022-08-05T00:09:12.900Z,100.00
2022-08-05T00:11:48.379Z,100.00
2022-08-05T00:14:18.407Z,100.00
2022-08-05T00:16:53.694Z,100.00
2022-08-05T00:19:23.220Z,100.00
2022-08-05T00:21:52.173Z,100.00
2022-08-05T00:24:24.768Z,100.00
2022-08-05T00:27:00.703Z,100.00
2022-08-05T00:29:37.809Z,100.00
2022-08-05T00:32:13.246Z,100.00
2022-08-05T00:35:04.788Z,100.00
2022-08-05T00:37:35.887Z,100.00
2022-08-05T00:40:28.069Z,100.00
2022-08-05T00:43:02.739Z,100.00
2022-08-05T00:45:38.735Z,100.00
2022-08-05T00:48:16.929Z,100.00
2022-08-05T00:50:49.834Z,100.00
2022-08-05T00:53:59.859Z,100.00
2022-08-05T00:56:13.157Z,100.00
2022-08-05T00:58:45.948Z,100.00
2022-08-05T01:01:42.904Z,100.00
2022-08-05T01:04:13.929Z,100.00
2022-08-05T01:06:43.732Z,100.00
2022-08-05T01:09:22.097Z,100.00
2022-08-05T01:11:53.837Z,100.00
2022-08-05T01:14:40.734Z,100.00
2022-08-05T01:17:39.936Z,100.00
2022-08-05T01:20:36.896Z,100.00
2022-08-05T01:23:22.744Z,100.00
2022-08-05T01:26:10.496Z,100.00
2022-08-05T01:28:46.930Z,100.00
2022-08-05T01:31:27.739Z,100.00
2022-08-05T01:34:08.485Z,100.00
2022-08-05T01:36:46.815Z,100.00
2022-08-05T01:39:45.693Z,100.00
2022-08-05T01:42:12.532Z,100.00
2022-08-05T01:44:45.768Z,100.00
2022-08-05T01:47:25.434Z,100.00
2022-08-05T01:50:18.493Z,100.00
2022-08-05T01:53:10.425Z,100.00
2022-08-05T01:55:43.156Z,100.00
2022-08-05T01:58:15.667Z,100.00
2022-08-05T02:00:50.635Z,100.00
2022-08-05T02:03:37.885Z,100.00
2022-08-05T02:06:33.844Z,100.00
2022-08-05T02:08:59.241Z,100.00
2022-08-05T02:11:34.092Z,100.00
2022-08-05T02:14:12.719Z,100.00
2022-08-05T02:17:05.393Z,100.00
2022-08-05T02:19:47.452Z,100.00
2022-08-05T02:22:25.908Z,100.00
2022-08-05T02:25:21.707Z,100.00
2022-08-05T02:27:58.405Z,100.00
2022-08-05T02:30:35.570Z,100.00
2022-08-05T02:33:05.136Z,100.00
2022-08-05T02:35:44.912Z,100.00
2022-08-05T02:38:35.355Z,100.00
2022-08-05T02:41:14.631Z,100.00
2022-08-05T02:44:02.801Z,100.00
2022-08-05T02:46:43.964Z,100.00
2022-08-05T02:49:35.569Z,100.00
2022-08-05T02:52:29.693Z,100.00
2022-08-05T02:55:01.891Z,100.00
2022-08-05T02:58:12.114Z,100.00
2022-08-05T03:00:25.421Z,100.00
2022-08-05T03:02:58.009Z,100.00
2022-08-05T03:06:56.473Z,100.00
2022-08-05T03:08:17.073Z,100.00
2022-08-05T03:11:52.999Z,100.00
2022-08-05T03:13:52.209Z,100.00
2022-08-05T03:16:31.573Z,100.00
2022-08-05T03:19:01.439Z,100.00
2022-08-05T03:21:41.427Z,100.00
2022-08-05T03:24:29.269Z,100.00
2022-08-05T03:27:00.071Z,100.00
2022-08-05T03:29:45.651Z,100.00
2022-08-05T03:32:19.545Z,100.00
2022-08-05T03:34:50.573Z,100.00
2022-08-05T03:37:21.201Z,100.00
2022-08-05T03:40:01.773Z,100.00
2022-08-05T03:42:41.589Z,100.00
2022-08-05T03:45:22.409Z,100.00
2022-08-05T03:47:51.986Z,100.00
2022-08-05T03:50:33.638Z,100.00
2022-08-05T03:55:52.579Z,100.00
2022-08-05T03:56:17.084Z,100.00
2022-08-05T03:58:48.685Z,100.00
2022-08-05T04:01:22.834Z,100.00
2022-08-05T04:04:09.211Z,100.00
2022-08-05T04:06:47.484Z,100.00
2022-08-05T04:09:20.216Z,100.00
2022-08-05T04:11:52.408Z,100.00
2022-08-05T04:14:29.891Z,100.00
2022-08-05T04:17:00.526Z,100.00
2022-08-05T04:19:29.792Z,100.00
2022-08-05T04:22:08.640Z,100.00
2022-08-05T04:24:52.485Z,100.00
2022-08-05T04:27:41.673Z,100.00
2022-08-05T04:30:10.796Z,100.00
2022-08-05T04:32:39.307Z,100.00
2022-08-05T04:35:17.537Z,100.00
2022-08-05T04:38:01.472Z,100.00
2022-08-05T04:40:44.456Z,100.00
2022-08-05T04:43:16.861Z,100.00
2022-08-05T04:45:49.015Z,100.00
2022-08-05T04:48:27.835Z,100.00
2022-08-05T04:51:03.324Z,100.00
2022-08-05T04:53:39.052Z,100.00
2022-08-05T04:56:33.467Z,100.00
2022-08-05T04:58:56.992Z,100.00
2022-08-05T05:01:33.470Z,100.00
2022-08-05T05:04:13.792Z,100.00
2022-08-05T05:06:44.729Z,100.00
2022-08-05T05:09:18.461Z,100.00
2022-08-05T05:11:54.490Z,100.00
2022-08-05T05:14:27.799Z,100.00
2022-08-05T05:17:00.747Z,100.00
2022-08-05T05:19:36.257Z,100.00
2022-08-05T05:22:24.411Z,100.00
2022-08-05T05:24:58.147Z,100.00
2022-08-05T05:27:44.655Z,100.00
2022-08-05T05:30:29.032Z,100.00
2022-08-05T05:33:08.778Z,100.00
2022-08-05T05:35:47.395Z,100.00
2022-08-05T05:38:22.441Z,100.00
2022-08-05T05:40:57.030Z,100.00
2022-08-05T05:43:54.225Z,100.00
2022-08-05T05:46:17.719Z,100.00
2022-08-05T05:48:48.694Z,100.00
2022-08-05T05:51:25.760Z,100.00
2022-08-05T05:54:00.184Z,100.00
2022-08-05T05:56:32.453Z,100.00
2022-08-05T05:59:07.790Z,100.00
2022-08-05T06:01:39.465Z,100.00
2022-08-05T06:04:12.153Z,100.00
2022-08-05T06:06:47.304Z,100.00
2022-08-05T06:09:35.382Z,100.00
2022-08-05T06:12:06.830Z,100.00
2022-08-05T06:14:40.119Z,100.00
2022-08-05T06:17:31.956Z,100.00
2022-08-05T06:19:59.715Z,100.00
2022-08-05T06:22:33.598Z,100.00
2022-08-05T06:25:25.012Z,100.00
2022-08-05T06:28:10.782Z,100.00
2022-08-05T06:30:41.817Z,100.00
2022-08-05T06:33:10.772Z,100.00
2022-08-05T06:36:07.228Z,100.00
2022-08-05T06:38:35.686Z,100.00
2022-08-05T06:41:07.774Z,100.00
2022-08-05T06:43:58.876Z,100.00
2022-08-05T06:46:30.069Z,100.00
2022-08-05T06:49:01.232Z,100.00
2022-08-05T06:51:31.490Z,100.00
2022-08-05T06:54:02.437Z,100.00
2022-08-05T06:56:34.330Z,100.00
2022-08-05T06:59:09.575Z,100.00
2022-08-05T07:01:40.513Z,100.00
2022-08-05T07:04:10.202Z,100.00
2022-08-05T07:06:38.612Z,100.00
2022-08-05T07:09:06.917Z,100.00
2022-08-05T07:11:37.053Z,100.00
2022-08-05T07:14:29.312Z,100.00
2022-08-05T07:17:59.947Z,100.00
2022-08-05T07:22:41.943Z,100.00
2022-08-05T07:25:23.803Z,100.00
2022-08-05T07:28:07.332Z,100.00
2022-08-05T07:30:39.775Z,100.00
2022-08-05T07:33:16.455Z,100.00
2022-08-05T07:36:03.568Z,100.00
2022-08-05T07:38:43.328Z,100.00
2022-08-05T07:42:12.846Z,100.00
2022-08-05T07:44:18.725Z,100.00
2022-08-05T07:46:49.515Z,100.00
2022-08-05T07:49:19.713Z,100.00
2022-08-05T07:51:54.433Z,100.00
2022-08-05T07:54:31.065Z,100.00
2022-08-05T07:57:17.575Z,100.00
2022-08-05T07:59:52.082Z,100.00
2022-08-05T08:02:26.359Z,100.00
2022-08-05T08:04:56.505Z,100.00
2022-08-05T08:07:25.132Z,99.89
2022-08-05T08:09:58.088Z,100.00
2022-08-05T08:12:48.393Z,100.00
2022-08-05T08:15:17.666Z,100.00
2022-08-05T08:18:09.903Z,99.97
2022-08-05T08:21:03.333Z,99.34
2022-08-05T08:24:02.356Z,98.74
2022-08-05T08:26:26.818Z,97.08
2022-08-05T08:29:21.796Z,96.28
2022-08-05T08:31:48.893Z,96.25
2022-08-05T08:34:29.871Z,95.55
2022-08-05T08:37:05.251Z,95.07
2022-08-05T08:39:37.144Z,94.81
2022-08-05T08:42:22.484Z,95.34
2022-08-05T08:45:22.360Z,94.15
2022-08-05T08:48:07.396Z,93.73
2022-08-05T08:51:21.954Z,91.33
2022-08-05T08:53:37.055Z,94.60
2022-08-05T08:56:06.672Z,94.14
2022-08-05T08:58:43.801Z,93.67
2022-08-05T09:01:18.966Z,93.52
2022-08-05T09:03:57.415Z,91.98
2022-08-05T09:06:29.844Z,91.99
2022-08-05T09:09:01.127Z,91.77
2022-08-05T09:11:51.005Z,93.17
2022-08-05T09:14:58.375Z,94.65
2022-08-05T09:17:40.120Z,96.31
2022-08-05T09:20:02.492Z,96.47
2022-08-05T09:23:19.656Z,95.68
2022-08-05T09:26:03.275Z,96.89
2022-08-05T09:28:36.322Z,97.55
2022-08-05T09:31:43.975Z,96.69
2022-08-05T09:33:59.351Z,96.50
2022-08-05T09:36:54.493Z,96.31
2022-08-05T09:39:42.031Z,95.57
2022-08-05T09:42:23.048Z,93.08
2022-08-05T09:44:56.630Z,93.14
2022-08-05T09:47:36.450Z,93.80
2022-08-05T09:50:43.585Z,93.87
2022-08-05T09:53:08.872Z,92.84
2022-08-05T09:55:58.716Z,91.66
2022-08-05T09:58:29.412Z,90.21
2022-08-05T10:01:13.352Z,88.32
2022-08-05T10:03:58.804Z,87.32
2022-08-05T10:06:28.398Z,87.78
2022-08-05T10:09:27.693Z,85.89
2022-08-05T10:12:31.047Z,85.83
2022-08-05T10:15:27.020Z,85.08
2022-08-05T10:18:08.691Z,85.25
2022-08-05T10:20:48.564Z,83.10
2022-08-05T10:23:34.368Z,80.77
2022-08-05T10:26:51.686Z,80.29
2022-08-05T10:29:01.154Z,80.53
2022-08-05T10:32:54.349Z,78.26
2022-08-05T10:34:19.578Z,76.19
2022-08-05T10:36:54.774Z,74.88
2022-08-05T10:40:03.813Z,73.49
2022-08-05T10:42:32.593Z,72.40
2022-08-05T10:45:21.186Z,69.92
2022-08-05T10:48:30.176Z,69.18
2022-08-05T10:51:03.368Z,63.55
2022-08-05T10:53:45.265Z,57.98
2022-08-05T10:56:25.458Z,57.56
2022-08-05T10:58:54.684Z,66.03
2022-08-05T11:02:04.820Z,58.92
2022-08-05T11:04:26.158Z,62.59
2022-08-05T11:06:58.105Z,62.21
2022-08-05T11:10:09.762Z,60.57
2022-08-05T11:12:42.124Z,60.91
2022-08-05T11:15:59.434Z,59.10
2022-08-05T11:18:29.739Z,57.55
2022-08-05T11:20:59.079Z,58.41
2022-08-05T11:24:05.287Z,58.45
2022-08-05T11:26:40.452Z,57.76
2022-08-05T11:29:35.664Z,56.67
2022-08-05T11:32:29.263Z,55.65
2022-08-05T11:34:57.991Z,55.94
2022-08-05T11:38:36.592Z,52.35
2022-08-05T11:41:01.287Z,52.73
2022-08-05T11:44:04.645Z,53.38
2022-08-05T11:46:36.050Z,57.44
2022-08-05T11:49:07.922Z,57.86
2022-08-05T11:51:44.707Z,58.44
2022-08-05T11:54:33.471Z,54.21
2022-08-05T11:57:08.047Z,57.99
2022-08-05T11:59:50.309Z,58.83
2022-08-05T12:02:31.154Z,59.17
2022-08-05T12:05:07.101Z,61.22
2022-08-05T12:08:03.468Z,62.05
2022-08-05T12:10:43.770Z,60.91
2022-08-05T12:13:47.509Z,60.81
2022-08-05T12:16:14.634Z,61.16
2022-08-05T12:18:49.013Z,62.16
2022-08-05T12:21:26.606Z,61.75
2022-08-05T12:24:00.103Z,61.06
2022-08-05T12:26:34.410Z,59.91
2022-08-05T12:29:05.910Z,57.94
2022-08-05T12:31:44.933Z,59.88
2022-08-05T12:34:37.001Z,59.17
2022-08-05T12:37:17.231Z,59.95
2022-08-05T12:40:03.636Z,62.84
2022-08-05T12:42:40.258Z,62.81
2022-08-05T12:45:10.784Z,61.21
2022-08-05T12:47:43.589Z,59.17
2022-08-05T12:50:27.870Z,60.11
2022-08-05T12:53:02.156Z,59.67
2022-08-05T12:55:32.826Z,60.76
2022-08-05T12:58:48.441Z,61.64
2022-08-05T13:02:03.767Z,60.89
2022-08-05T13:03:42.273Z,60.14
2022-08-05T13:06:18.205Z,59.13
2022-08-05T13:08:52.099Z,59.49
2022-08-05T13:12:01.716Z,62.20
2022-08-05T13:14:24.971Z,63.47
2022-08-05T13:17:21.426Z,63.95
2022-08-05T13:20:04.015Z,64.88
2022-08-05T13:22:37.912Z,64.70
2022-08-05T13:25:19.133Z,65.64
2022-08-05T13:27:52.645Z,66.47
2022-08-05T13:30:34.924Z,67.40
2022-08-05T13:33:05.133Z,68.92
2022-08-05T13:35:47.578Z,69.56
2022-08-05T13:38:30.373Z,67.90
2022-08-05T13:41:02.730Z,67.56
2022-08-05T13:43:43.354Z,68.12
2022-08-05T13:46:16.188Z,68.65
2022-08-05T13:48:57.091Z,68.50
2022-08-05T13:51:36.571Z,67.92
2022-08-05T13:54:13.666Z,68.28
2022-08-05T13:56:50.833Z,66.03
2022-08-05T13:59:24.318Z,65.73
2022-08-05T14:01:58.261Z,65.15
2022-08-05T14:04:51.045Z,64.76
2022-08-05T14:07:26.218Z,64.36
2022-08-05T14:10:30.719Z,63.98
2022-08-05T14:12:59.819Z,64.20
2022-08-05T14:16:05.218Z,64.63
2022-08-05T14:18:18.598Z,64.85
2022-08-05T14:20:54.989Z,65.94
2022-08-05T14:23:25.841Z,70.30
2022-08-05T14:25:57.915Z,73.65
2022-08-05T14:28:29.469Z,74.58
2022-08-05T14:30:59.700Z,77.78
2022-08-05T14:33:56.362Z,77.99
2022-08-05T14:36:21.412Z,79.18
2022-08-05T14:38:51.501Z,78.94
2022-08-05T14:41:21.085Z,79.26
2022-08-05T14:44:02.461Z,78.82
2022-08-05T14:46:38.011Z,78.56
2022-08-05T14:49:08.061Z,78.23
2022-08-05T14:51:38.305Z,76.83
2022-08-05T14:54:27.919Z,76.37
2022-08-05T14:56:56.266Z,75.39
2022-08-05T14:59:25.155Z,75.07
2022-08-05T15:01:58.456Z,74.70
2022-08-05T15:04:29.133Z,73.17
2022-08-05T15:06:57.790Z,72.44
2022-08-05T15:09:51.330Z,70.49
2022-08-05T15:12:16.963Z,70.17
2022-08-05T15:14:50.163Z,69.71
2022-08-05T15:17:47.709Z,70.56
2022-08-05T15:20:17.022Z,69.01
2022-08-05T15:22:54.267Z,67.94
2022-08-05T15:25:51.484Z,69.74
2022-08-05T15:28:14.724Z,70.88
2022-08-05T15:30:46.757Z,70.67
2022-08-05T15:34:04.111Z,70.14
2022-08-05T15:36:17.389Z,70.19
2022-08-05T15:40:59.096Z,69.51
2022-08-05T15:41:57.267Z,69.35
2022-08-05T15:44:30.302Z,67.08
2022-08-05T15:47:01.824Z,65.90
2022-08-05T15:49:43.266Z,66.32
2022-08-05T15:52:51.851Z,65.15
2022-08-05T15:55:16.064Z,66.28
2022-08-05T15:57:44.928Z,67.24
2022-08-05T16:00:16.634Z,66.11
2022-08-05T16:02:45.416Z,66.79
2022-08-05T16:05:15.548Z,66.04
2022-08-05T16:07:46.432Z,66.86
2022-08-05T16:10:15.226Z,66.10
2022-08-05T16:12:43.517Z,66.76
2022-08-05T16:15:18.386Z,66.22
2022-08-05T16:17:58.078Z,66.55
2022-08-05T16:20:27.882Z,64.96
2022-08-05T16:22:57.475Z,64.12
2022-08-05T16:25:32.347Z,64.89
2022-08-05T16:28:09.535Z,64.88
2022-08-05T16:30:38.681Z,65.54
2022-08-05T16:33:07.110Z,65.51
2022-08-05T16:35:42.215Z,65.42
2022-08-05T16:38:18.420Z,65.89
2022-08-05T16:41:00.291Z,65.93
2022-08-05T16:43:31.720Z,66.22
2022-08-05T16:46:03.703Z,67.20
2022-08-05T16:48:38.479Z,66.32
2022-08-05T16:51:08.918Z,67.12
2022-08-05T16:54:04.852Z,67.58
2022-08-05T16:56:30.437Z,67.98
2022-08-05T16:59:08.185Z,68.72
2022-08-05T17:01:52.921Z,69.61
2022-08-05T17:04:28.482Z,70.06
2022-08-05T17:07:01.266Z,70.00
2022-08-05T17:09:30.392Z,70.94
2022-08-05T17:12:07.287Z,71.10
2022-08-05T17:14:37.208Z,71.86
2022-08-05T17:17:09.305Z,72.09
2022-08-05T17:19:45.649Z,71.97
2022-08-05T17:22:24.754Z,72.55
2022-08-05T17:24:57.640Z,73.12
2022-08-05T17:27:34.121Z,73.23
2022-08-05T17:30:18.685Z,73.50
2022-08-05T17:32:56.047Z,73.16
2022-08-05T17:35:24.700Z,72.95
2022-08-05T17:37:53.025Z,72.55
2022-08-05T17:40:29.346Z,71.66
2022-08-05T17:43:00.847Z,71.53
2022-08-05T17:45:29.605Z,71.46
2022-08-05T17:48:08.110Z,71.09
2022-08-05T17:50:36.720Z,71.38
2022-08-05T17:53:08.437Z,71.78
2022-08-05T17:55:39.994Z,72.38
2022-08-05T17:58:12.461Z,72.36
2022-08-05T18:00:47.098Z,72.76
2022-08-05T18:03:55.994Z,72.64
2022-08-05T18:06:12.118Z,72.07
2022-08-05T18:08:46.233Z,72.08
2022-08-05T18:11:24.419Z,72.01
2022-08-05T18:14:07.484Z,71.71
2022-08-05T18:16:46.730Z,72.44
2022-08-05T18:19:22.837Z,73.02
2022-08-05T18:22:08.447Z,73.36
2022-08-05T18:24:40.287Z,74.03
2022-08-05T18:27:12.678Z,74.55
2022-08-05T18:29:53.477Z,75.29
2022-08-05T18:32:28.055Z,75.60
2022-08-05T18:34:59.159Z,75.97
2022-08-05T18:37:34.804Z,76.36
2022-08-05T18:40:34.636Z,76.53
2022-08-05T18:43:03.770Z,77.31
2022-08-05T18:45:41.215Z,78.05
2022-08-05T18:48:11.165Z,78.57
2022-08-05T18:51:01.698Z,79.20
2022-08-05T18:53:50.530Z,79.78
2022-08-05T18:56:21.932Z,80.64
2022-08-05T18:59:00.707Z,80.83
2022-08-05T19:01:33.199Z,80.90
2022-08-05T19:04:23.907Z,81.10
2022-08-05T19:06:53.632Z,81.63
2022-08-05T19:09:22.338Z,82.20
2022-08-05T19:12:00.346Z,82.47
2022-08-05T19:14:59.610Z,83.22
2022-08-05T19:17:19.367Z,83.50
2022-08-05T19:19:48.530Z,83.49
2022-08-05T19:22:17.734Z,83.71
2022-08-05T19:24:54.697Z,84.46
2022-08-05T19:27:30.499Z,84.92
2022-08-05T19:29:59.169Z,85.00
2022-08-05T19:32:27.921Z,85.29
2022-08-05T19:34:57.935Z,86.09
2022-08-05T19:37:30.084Z,85.88
2022-08-05T19:40:15.419Z,86.53
2022-08-05T19:43:05.558Z,86.43
2022-08-05T19:45:33.136Z,87.36
2022-08-05T19:48:06.252Z,87.63
2022-08-05T19:50:35.226Z,87.30
2022-08-05T19:53:09.261Z,88.50
2022-08-05T19:56:19.234Z,88.26
2022-08-05T19:58:29.472Z,88.47
2022-08-05T20:00:58.978Z,88.22
2022-08-05T20:03:27.471Z,87.95
2022-08-05T20:06:14.815Z,88.55
2022-08-05T20:08:47.218Z,88.62
2022-08-05T20:11:17.915Z,88.45
2022-08-05T20:13:58.291Z,88.33
2022-08-05T20:16:27.521Z,88.55
2022-08-05T20:18:56.046Z,88.79
2022-08-05T20:21:25.503Z,89.17
2022-08-05T20:23:53.899Z,88.93
2022-08-05T20:26:27.619Z,89.61
2022-08-05T20:29:00.545Z,90.09
2022-08-05T20:31:42.817Z,89.80
2022-08-05T20:34:17.826Z,90.78
2022-08-05T20:36:46.310Z,90.83
2022-08-05T20:39:16.580Z,90.42
2022-08-05T20:41:47.869Z,90.74
2022-08-05T20:44:30.308Z,91.02
2022-08-05T20:47:01.121Z,90.81
2022-08-05T20:49:29.666Z,90.84
2022-08-05T20:52:01.840Z,91.63
2022-08-05T20:54:42.916Z,91.68
2022-08-05T20:57:24.665Z,92.03
2022-08-05T21:00:20.945Z,92.34
2022-08-05T21:03:01.190Z,92.86
2022-08-05T21:05:48.183Z,92.40
2022-08-05T21:08:18.543Z,92.69
2022-08-05T21:10:48.896Z,92.74
2022-08-05T21:13:46.962Z,92.83
2022-08-05T21:16:07.484Z,93.16
2022-08-05T21:18:36.010Z,93.56
2022-08-05T21:21:04.441Z,93.65
2022-08-05T21:23:37.204Z,93.99
2022-08-05T21:26:12.188Z,93.64
2022-08-05T21:28:50.528Z,93.88
2022-08-05T21:31:19.897Z,93.88
2022-08-05T21:33:49.816Z,94.76
2022-08-05T21:36:19.101Z,95.51
2022-08-05T21:38:56.688Z,95.54
2022-08-05T21:41:26.146Z,95.57
2022-08-05T21:44:04.462Z,95.91
2022-08-05T21:46:34.355Z,95.99
2022-08-05T21:49:07.068Z,96.37
2022-08-05T21:52:21.871Z,96.50
2022-08-05T21:54:30.712Z,97.01
2022-08-05T21:57:31.365Z,96.97
2022-08-05T22:00:03.277Z,97.05
2022-08-05T22:02:44.145Z,97.27
2022-08-05T22:05:14.197Z,97.89
2022-08-05T22:07:59.531Z,97.76
2022-08-05T22:10:31.024Z,98.92
2022-08-05T22:13:08.623Z,98.26
2022-08-05T22:16:01.170Z,98.39
2022-08-05T22:18:33.261Z,99.08
2022-08-05T22:21:04.710Z,99.08
2022-08-05T22:24:03.171Z,99.01
2022-08-05T22:26:55.828Z,99.35
2022-08-05T22:29:26.647Z,99.41
2022-08-05T22:32:02.665Z,100.00
2022-08-05T22:34:34.666Z,100.00
2022-08-05T22:37:04.960Z,100.00
2022-08-05T22:39:34.747Z,100.00
2022-08-05T22:42:11.316Z,100.00
2022-08-05T22:44:47.053Z,100.00
2022-08-05T22:47:29.667Z,100.00
2022-08-05T22:50:20.046Z,100.00
2022-08-05T22:52:51.429Z,100.00
2022-08-05T22:55:22.918Z,100.00
2022-08-05T22:57:53.342Z,100.00
2022-08-05T23:00:23.122Z,100.00
2022-08-05T23:02:53.419Z,100.00
2022-08-05T23:05:22.725Z,100.00
2022-08-05T23:07:51.912Z,100.00
2022-08-05T23:10:23.910Z,100.00
2022-08-05T23:12:55.147Z,100.00
2022-08-05T23:15:34.815Z,100.00
2022-08-05T23:18:05.841Z,100.00
2022-08-05T23:20:40.105Z,100.00
2022-08-05T23:23:11.854Z,100.00
2022-08-05T23:25:51.409Z,100.00
2022-08-05T23:28:27.628Z,100.00
2022-08-05T23:31:02.220Z,100.00
2022-08-05T23:34:05.583Z,100.00
2022-08-05T23:36:40.225Z,100.00
2022-08-05T23:39:17.640Z,100.00
2022-08-05T23:42:00.742Z,100.00
2022-08-05T23:44:31.490Z,100.00
2022-08-05T23:47:02.312Z,100.00
2022-08-05T23:49:46.447Z,100.00
2022-08-05T23:52:27.496Z,100.00
2022-08-05T23:54:59.059Z,100.00
2022-08-05T23:57:28.254Z,100.00
